sensor_id;sensor_type;location;lat;lon;timestamp;pressure;altitude;pressure_sealevel;temperature;humidity
70521;BME280;58442;52.716;23.560;2023-02-15T00:00:05;103052.63;;;3.34;77.84
70521;BME280;58442;52.716;23.560;2023-02-15T00:02:16;103051.80;;;3.33;77.88
70521;BME280;58442;52.716;23.560;2023-02-15T00:04:20;103055.30;;;3.34;77.88
70521;BME280;58442;52.716;23.560;2023-02-15T00:06:22;103048.30;;;3.33;77.90
70521;BME280;58442;52.716;23.560;2023-02-15T00:08:23;103053.67;;;3.33;77.91
70521;BME280;58442;52.716;23.560;2023-02-15T00:10:25;103054.73;;;3.32;77.93
70521;BME280;58442;52.716;23.560;2023-02-15T00:12:26;103060.11;;;3.32;77.96
70521;BME280;58442;52.716;23.560;2023-02-15T00:14:35;103061.74;;;3.33;77.98
70521;BME280;58442;52.716;23.560;2023-02-15T00:16:37;103055.55;;;3.32;77.98
70521;BME280;58442;52.716;23.560;2023-02-15T00:18:39;103064.43;;;3.33;77.98
70521;BME280;58442;52.716;23.560;2023-02-15T00:20:40;103058.48;;;3.31;78.02
70521;BME280;58442;52.716;23.560;2023-02-15T00:22:50;103054.17;;;3.29;78.10
70521;BME280;58442;52.716;23.560;2023-02-15T00:24:51;103060.11;;;3.32;78.12
70521;BME280;58442;52.716;23.560;2023-02-15T00:26:53;103062.55;;;3.33;78.13
70521;BME280;58442;52.716;23.560;2023-02-15T00:28:54;103057.98;;;3.34;78.07
70521;BME280;58442;52.716;23.560;2023-02-15T00:31:10;103060.44;;;3.35;78.11
70521;BME280;58442;52.716;23.560;2023-02-15T00:33:12;103066.63;;;3.36;78.29
70521;BME280;58442;52.716;23.560;2023-02-15T00:35:13;103060.78;;;3.39;78.02
70521;BME280;58442;52.716;23.560;2023-02-15T00:37:14;103066.97;;;3.39;77.96
70521;BME280;58442;52.716;23.560;2023-02-15T00:39:20;103071.53;;;3.39;77.96
70521;BME280;58442;52.716;23.560;2023-02-15T00:41:22;103072.80;;;3.36;78.04
70521;BME280;58442;52.716;23.560;2023-02-15T00:43:25;103061.24;;;3.36;78.08
70521;BME280;58442;52.716;23.560;2023-02-15T00:45:26;103063.37;;;3.34;78.17
70521;BME280;58442;52.716;23.560;2023-02-15T00:47:35;103058.80;;;3.34;78.19
70521;BME280;58442;52.716;23.560;2023-02-15T00:49:36;103067.12;;;3.33;78.21
70521;BME280;58442;52.716;23.560;2023-02-15T00:51:38;103064.43;;;3.33;78.28
70521;BME280;58442;52.716;23.560;2023-02-15T00:53:40;103062.55;;;3.33;78.29
70521;BME280;58442;52.716;23.560;2023-02-15T00:55:50;103069.55;;;3.34;78.27
70521;BME280;58442;52.716;23.560;2023-02-15T00:57:51;103067.67;;;3.35;78.32
70521;BME280;58442;52.716;23.560;2023-02-15T00:59:52;103059.62;;;3.35;78.31
70521;BME280;58442;52.716;23.560;2023-02-15T01:01:54;103053.99;;;3.36;78.24
70521;BME280;58442;52.716;23.560;2023-02-15T01:04:05;103063.22;;;3.40;78.19
70521;BME280;58442;52.716;23.560;2023-02-15T01:06:06;103060.07;;;3.43;78.14
70521;BME280;58442;52.716;23.560;2023-02-15T01:08:08;103062.26;;;3.46;78.09
70521;BME280;58442;52.716;23.560;2023-02-15T01:10:10;103066.32;;;3.49;77.96
70521;BME280;58442;52.716;23.560;2023-02-15T01:12:20;103061.55;;;3.51;77.87
70521;BME280;58442;52.716;23.560;2023-02-15T01:14:23;103067.48;;;3.53;77.81
70521;BME280;58442;52.716;23.560;2023-02-15T01:16:26;103062.93;;;3.53;77.77
70521;BME280;58442;52.716;23.560;2023-02-15T01:18:28;103058.91;;;3.56;77.74
70521;BME280;58442;52.716;23.560;2023-02-15T01:20:37;103065.36;;;3.55;77.79
70521;BME280;58442;52.716;23.560;2023-02-15T01:22:41;103059.41;;;3.53;77.71
70521;BME280;58442;52.716;23.560;2023-02-15T01:24:42;103058.05;;;3.50;77.81
70521;BME280;58442;52.716;23.560;2023-02-15T01:26:44;103060.94;;;3.49;77.89
70521;BME280;58442;52.716;23.560;2023-02-15T01:28:50;103051.82;;;3.50;77.89
70521;BME280;58442;52.716;23.560;2023-02-15T01:30:51;103056.16;;;3.51;77.88
70521;BME280;58442;52.716;23.560;2023-02-15T01:32:52;103061.29;;;3.52;77.83
70521;BME280;58442;52.716;23.560;2023-02-15T01:34:54;103062.57;;;3.50;77.80
70521;BME280;58442;52.716;23.560;2023-02-15T01:37:05;103061.44;;;3.46;77.90
70521;BME280;58442;52.716;23.560;2023-02-15T01:39:06;103066.81;;;3.46;77.99
70521;BME280;58442;52.716;23.560;2023-02-15T01:41:10;103068.45;;;3.47;78.02
70521;BME280;58442;52.716;23.560;2023-02-15T01:45:35;103064.22;;;3.51;77.82
70521;BME280;58442;52.716;23.560;2023-02-15T01:47:53;103066.92;;;3.51;77.73
70521;BME280;58442;52.716;23.560;2023-02-15T01:52:25;103061.76;;;3.49;77.85
70521;BME280;58442;52.716;23.560;2023-02-15T01:54:32;103054.51;;;3.50;77.89
70521;BME280;58442;52.716;23.560;2023-02-15T01:56:38;103060.48;;;3.52;77.84
70521;BME280;58442;52.716;23.560;2023-02-15T01:58:41;103053.48;;;3.51;77.81
70521;BME280;58442;52.716;23.560;2023-02-15T02:00:44;103054.51;;;3.50;77.83
70521;BME280;58442;52.716;23.560;2023-02-15T02:02:49;103056.38;;;3.49;77.92
70521;BME280;58442;52.716;23.560;2023-02-15T02:04:54;103049.38;;;3.48;78.01
70521;BME280;58442;52.716;23.560;2023-02-15T02:06:59;103053.48;;;3.51;77.96
70521;BME280;58442;52.716;23.560;2023-02-15T02:09:00;103051.34;;;3.53;77.92
70521;BME280;58442;52.716;23.560;2023-02-15T02:11:04;103048.41;;;3.54;77.86
70521;BME280;58442;52.716;23.560;2023-02-15T02:13:09;103051.66;;;3.56;77.83
70521;BME280;58442;52.716;23.560;2023-02-15T02:15:10;103041.76;;;3.57;77.77
70521;BME280;58442;52.716;23.560;2023-02-15T02:17:21;103040.70;;;3.58;77.76
70521;BME280;58442;52.716;23.560;2023-02-15T02:26:54;103035.53;;;3.56;77.65
70521;BME280;58442;52.716;23.560;2023-02-15T02:45:47;103034.00;;;3.61;77.77
70521;BME280;58442;52.716;23.560;2023-02-15T02:47:59;103030.01;;;3.63;77.67
70521;BME280;58442;52.716;23.560;2023-02-15T02:50:08;103030.01;;;3.63;77.54
70521;BME280;58442;52.716;23.560;2023-02-15T02:54:23;103036.44;;;3.62;77.54
70521;BME280;58442;52.716;23.560;2023-02-15T02:56:31;103032.69;;;3.63;77.50
70521;BME280;58442;52.716;23.560;2023-02-15T02:58:43;103031.66;;;3.64;77.48
70521;BME280;58442;52.716;23.560;2023-02-15T03:01:11;103027.91;;;3.65;77.47
70521;BME280;58442;52.716;23.560;2023-02-15T03:03:14;103027.91;;;3.65;77.44
70521;BME280;58442;52.716;23.560;2023-02-15T03:05:21;103036.20;;;3.64;77.47
70521;BME280;58442;52.716;23.560;2023-02-15T03:07:27;103027.91;;;3.65;77.47
70521;BME280;58442;52.716;23.560;2023-02-15T03:09:37;103027.09;;;3.65;77.42
70521;BME280;58442;52.716;23.560;2023-02-15T03:11:46;103028.11;;;3.64;77.42
70521;BME280;58442;52.716;23.560;2023-02-15T03:13:48;103030.01;;;3.63;77.44
70521;BME280;58442;52.716;23.560;2023-02-15T03:15:52;103028.63;;;3.61;77.46
70521;BME280;58442;52.716;23.560;2023-02-15T03:18:07;103021.88;;;3.58;77.51
70521;BME280;58442;52.716;23.560;2023-02-15T03:20:15;103016.39;;;3.53;77.61
70521;BME280;58442;52.716;23.560;2023-02-15T03:22:23;103023.09;;;3.50;77.74
70521;BME280;58442;52.716;23.560;2023-02-15T03:24:35;103018.75;;;3.49;77.89
70521;BME280;58442;52.716;23.560;2023-02-15T03:26:39;103020.40;;;3.50;77.91
70521;BME280;58442;52.716;23.560;2023-02-15T03:28:44;103022.03;;;3.51;77.86
70521;BME280;58442;52.716;23.560;2023-02-15T03:30:52;103027.97;;;3.53;77.84
70521;BME280;58442;52.716;23.560;2023-02-15T03:33:05;103024.78;;;3.56;77.79
70521;BME280;58442;52.716;23.560;2023-02-15T03:35:07;103026.44;;;3.58;77.70
70521;BME280;58442;52.716;23.560;2023-02-15T03:43:59;103019.75;;;3.60;77.46
70521;BME280;58442;52.716;23.560;2023-02-15T03:46:17;103021.88;;;3.58;77.47
70521;BME280;58442;52.716;23.560;2023-02-15T03:50:43;103019.09;;;3.53;77.56
70521;BME280;58442;52.716;23.560;2023-02-15T03:53:08;103023.30;;;3.49;77.63
70521;BME280;58442;52.716;23.560;2023-02-15T03:55:10;103019.49;;;3.45;77.79
70521;BME280;58442;52.716;23.560;2023-02-15T03:57:18;103010.62;;;3.44;77.84
70521;BME280;58442;52.716;23.560;2023-02-15T03:59:32;103014.13;;;3.45;77.82
70521;BME280;58442;52.716;23.560;2023-02-15T04:01:59;103014.59;;;3.42;77.87
70521;BME280;58442;52.716;23.560;2023-02-15T04:04:07;103017.27;;;3.42;77.97
70521;BME280;58442;52.716;23.560;2023-02-15T04:06:11;103013.77;;;3.41;77.89
70521;BME280;58442;52.716;23.560;2023-02-15T04:08:13;103006.77;;;3.40;77.95
70521;BME280;58442;52.716;23.560;2023-02-15T04:10:14;103012.96;;;3.41;77.97
70521;BME280;58442;52.716;23.560;2023-02-15T04:12:28;103012.15;;;3.40;77.97
70521;BME280;58442;52.716;23.560;2023-02-15T04:14:29;103011.34;;;3.40;77.98
70521;BME280;58442;52.716;23.560;2023-02-15T04:16:42;103007.59;;;3.41;78.00
70521;BME280;58442;52.716;23.560;2023-02-15T04:18:44;103007.34;;;3.42;78.01
70521;BME280;58442;52.716;23.560;2023-02-15T04:20:57;103010.62;;;3.44;77.91
70521;BME280;58442;52.716;23.560;2023-02-15T04:23:10;103008.74;;;3.45;77.79
70521;BME280;58442;52.716;23.560;2023-02-15T04:25:24;103006.30;;;3.43;77.79
70521;BME280;58442;52.716;23.560;2023-02-15T04:27:25;103007.68;;;3.46;77.78
70521;BME280;58442;52.716;23.560;2023-02-15T04:29:27;103010.94;;;3.48;77.75
70521;BME280;58442;52.716;23.560;2023-02-15T04:31:29;103014.17;;;3.50;77.63
70521;BME280;58442;52.716;23.560;2023-02-15T04:33:30;103010.68;;;3.49;77.58
70521;BME280;58442;52.716;23.560;2023-02-15T04:35:38;103009.88;;;3.49;77.64
70521;BME280;58442;52.716;23.560;2023-02-15T04:37:40;103003.69;;;3.48;77.59
70521;BME280;58442;52.716;23.560;2023-02-15T04:39:42;103004.49;;;3.49;77.61
70521;BME280;58442;52.716;23.560;2023-02-15T04:41:43;103006.62;;;3.47;77.62
70521;BME280;58442;52.716;23.560;2023-02-15T04:43:53;103007.44;;;3.47;77.71
70521;BME280;58442;52.716;23.560;2023-02-15T04:45:54;103007.18;;;3.49;77.73
70521;BME280;58442;52.716;23.560;2023-02-15T04:47:55;103005.09;;;3.51;77.64
70521;BME280;58442;52.716;23.560;2023-02-15T04:49:57;102999.46;;;3.52;77.57
70521;BME280;58442;52.716;23.560;2023-02-15T04:52:08;103005.40;;;3.54;77.52
70521;BME280;58442;52.716;23.560;2023-02-15T04:54:11;103005.65;;;3.53;77.50
70521;BME280;58442;52.716;23.560;2023-02-15T04:56:12;103012.09;;;3.52;77.55
70521;BME280;58442;52.716;23.560;2023-02-15T04:58:14;103006.71;;;3.52;77.57
70521;BME280;58442;52.716;23.560;2023-02-15T05:00:23;103001.33;;;3.52;77.55
70521;BME280;58442;52.716;23.560;2023-02-15T05:02:24;102999.70;;;3.51;77.57
70521;BME280;58442;52.716;23.560;2023-02-15T05:04:25;103002.13;;;3.52;77.61
70521;BME280;58442;52.716;23.560;2023-02-15T05:06:27;103004.84;;;3.52;77.55
70521;BME280;58442;52.716;23.560;2023-02-15T05:08:38;103002.97;;;3.53;77.53
70521;BME280;58442;52.716;23.560;2023-02-15T05:10:39;103001.89;;;3.54;77.50
70521;BME280;58442;52.716;23.560;2023-02-15T05:12:40;103008.09;;;3.54;77.50
70521;BME280;58442;52.716;23.560;2023-02-15T05:14:41;103013.21;;;3.56;77.49
70521;BME280;58442;52.716;23.560;2023-02-15T05:16:53;103013.21;;;3.56;77.43
70521;BME280;58442;52.716;23.560;2023-02-15T05:18:54;103002.45;;;3.56;77.43
70521;BME280;58442;52.716;23.560;2023-02-15T05:20:56;103008.66;;;3.56;77.42
70521;BME280;58442;52.716;23.560;2023-02-15T05:22:57;103015.91;;;3.56;77.40
70521;BME280;58442;52.716;23.560;2023-02-15T05:25:08;103014.52;;;3.53;77.40
70521;BME280;58442;52.716;23.560;2023-02-15T05:27:29;103009.14;;;3.53;77.49
70521;BME280;58442;52.716;23.560;2023-02-15T05:29:50;103017.21;;;3.53;77.52
70521;BME280;58442;52.716;23.560;2023-02-15T05:31:52;103011.02;;;3.53;77.45
70521;BME280;58442;52.716;23.560;2023-02-15T05:33:53;103016.65;;;3.51;77.52
70521;BME280;58442;52.716;23.560;2023-02-15T05:35:54;103008.34;;;3.53;77.51
70521;BME280;58442;52.716;23.560;2023-02-15T05:38:05;103019.90;;;3.53;77.46
70521;BME280;58442;52.716;23.560;2023-02-15T05:40:07;103009.96;;;3.54;77.45
70521;BME280;58442;52.716;23.560;2023-02-15T05:42:09;103012.41;;;3.55;77.44
70521;BME280;58442;52.716;23.560;2023-02-15T05:44:10;103008.66;;;3.56;77.36
70521;BME280;58442;52.716;23.560;2023-02-15T05:46:20;103013.21;;;3.56;77.35
70521;BME280;58442;52.716;23.560;2023-02-15T05:48:24;103015.09;;;3.55;77.37
70521;BME280;58442;52.716;23.560;2023-02-15T05:50:25;103010.52;;;3.56;77.37
70521;BME280;58442;52.716;23.560;2023-02-15T05:52:27;103014.02;;;3.56;77.33
70521;BME280;58442;52.716;23.560;2023-02-15T05:54:35;103013.46;;;3.54;77.34
70521;BME280;58442;52.716;23.560;2023-02-15T05:56:37;103024.46;;;3.53;77.38
70521;BME280;58442;52.716;23.560;2023-02-15T05:58:39;103016.39;;;3.53;77.45
70521;BME280;58442;52.716;23.560;2023-02-15T06:00:41;103022.34;;;3.55;77.45
70521;BME280;58442;52.716;23.560;2023-02-15T06:02:51;103016.71;;;3.56;77.44
70521;BME280;58442;52.716;23.560;2023-02-15T06:04:52;103020.80;;;3.59;77.44
70521;BME280;58442;52.716;23.560;2023-02-15T06:06:53;103025.13;;;3.60;77.38
70521;BME280;58442;52.716;23.560;2023-02-15T06:08:55;103032.13;;;3.61;77.35
70521;BME280;58442;52.716;23.560;2023-02-15T06:11:06;103021.94;;;3.63;77.39
70521;BME280;58442;52.716;23.560;2023-02-15T06:13:07;103025.44;;;3.64;77.38
70521;BME280;58442;52.716;23.560;2023-02-15T06:15:08;103023.59;;;3.64;77.33
70521;BME280;58442;52.716;23.560;2023-02-15T06:17:10;103030.59;;;3.65;77.32
70521;BME280;58442;52.716;23.560;2023-02-15T06:19:20;103028.47;;;3.67;77.33
70521;BME280;58442;52.716;23.560;2023-02-15T06:21:23;103026.59;;;3.68;77.30
70521;BME280;58442;52.716;23.560;2023-02-15T06:23:24;103032.77;;;3.68;77.22
70521;BME280;58442;52.716;23.560;2023-02-15T06:25:26;103029.53;;;3.66;77.29
70521;BME280;58442;52.716;23.560;2023-02-15T06:27:35;103031.97;;;3.68;77.33
70521;BME280;58442;52.716;23.560;2023-02-15T06:29:37;103032.77;;;3.68;77.33
70521;BME280;58442;52.716;23.560;2023-02-15T06:31:38;103032.77;;;3.68;77.35
70521;BME280;58442;52.716;23.560;2023-02-15T06:33:39;103039.80;;;3.69;77.32
70521;BME280;58442;52.716;23.560;2023-02-15T06:35:50;103030.34;;;3.67;77.39
70521;BME280;58442;52.716;23.560;2023-02-15T06:37:52;103031.66;;;3.64;77.48
70521;BME280;58442;52.716;23.560;2023-02-15T06:39:53;103032.13;;;3.61;77.58
70521;BME280;58442;52.716;23.560;2023-02-15T06:41:54;103031.01;;;3.57;77.72
70521;BME280;58442;52.716;23.560;2023-02-15T06:44:05;103035.22;;;3.53;77.85
70521;BME280;58442;52.716;23.560;2023-02-15T06:46:07;103033.84;;;3.50;78.17
70521;BME280;58442;52.716;23.560;2023-02-15T06:48:08;103038.98;;;3.52;78.00
70521;BME280;58442;52.716;23.560;2023-02-15T06:50:11;103034.41;;;3.52;78.05
70521;BME280;58442;52.716;23.560;2023-02-15T06:52:20;103036.85;;;3.54;78.08
70521;BME280;58442;52.716;23.560;2023-02-15T06:54:22;103041.16;;;3.55;78.03
70521;BME280;58442;52.716;23.560;2023-02-15T06:56:23;103045.47;;;3.56;78.00
70521;BME280;58442;52.716;23.560;2023-02-15T06:58:24;103038.72;;;3.53;78.05
70521;BME280;58442;52.716;23.560;2023-02-15T07:00:35;103045.47;;;3.56;78.04
70521;BME280;58442;52.716;23.560;2023-02-15T07:02:36;103043.60;;;3.56;78.04
70521;BME280;58442;52.716;23.560;2023-02-15T07:04:38;103043.38;;;3.58;78.05
70521;BME280;58442;52.716;23.560;2023-02-15T07:06:39;103038.82;;;3.59;77.98
70521;BME280;58442;52.716;23.560;2023-02-15T07:08:50;103040.10;;;3.56;78.02
70521;BME280;58442;52.716;23.560;2023-02-15T07:10:52;103043.04;;;3.54;78.11
70521;BME280;58442;52.716;23.560;2023-02-15T07:12:54;103042.79;;;3.56;78.12
70521;BME280;58442;52.716;23.560;2023-02-15T07:14:55;103046.07;;;3.58;78.08
70521;BME280;58442;52.716;23.560;2023-02-15T07:17:05;103049.31;;;3.60;78.11
70521;BME280;58442;52.716;23.560;2023-02-15T07:19:07;103039.13;;;3.62;78.03
70521;BME280;58442;52.716;23.560;2023-02-15T07:21:08;103042.41;;;3.64;77.92
70521;BME280;58442;52.716;23.560;2023-02-15T07:23:10;103038.88;;;3.64;77.92
70521;BME280;58442;52.716;23.560;2023-02-15T07:25:20;103043.23;;;3.65;77.94
70521;BME280;58442;52.716;23.560;2023-02-15T07:27:22;103045.10;;;3.64;77.96
70521;BME280;58442;52.716;23.560;2023-02-15T07:29:23;103042.41;;;3.64;77.96
70521;BME280;58442;52.716;23.560;2023-02-15T07:31:25;103049.41;;;3.65;77.99
70521;BME280;58442;52.716;23.560;2023-02-15T07:33:35;103048.91;;;3.68;77.94
70521;BME280;58442;52.716;23.560;2023-02-15T07:35:37;103042.25;;;3.71;77.83
70521;BME280;58442;52.716;23.560;2023-02-15T07:37:38;103050.07;;;3.72;77.83
70521;BME280;58442;52.716;23.560;2023-02-15T07:39:39;103049.83;;;3.74;77.75
70521;BME280;58442;52.716;23.560;2023-02-15T07:41:50;103047.44;;;3.77;77.75
70521;BME280;58442;52.716;23.560;2023-02-15T07:43:52;103054.48;;;3.78;77.68
70521;BME280;58442;52.716;23.560;2023-02-15T07:45:53;103049.57;;;3.75;77.69
70521;BME280;58442;52.716;23.560;2023-02-15T07:47:54;103047.12;;;3.74;77.75
70521;BME280;58442;52.716;23.560;2023-02-15T07:50:06;103043.63;;;3.73;77.77
70521;BME280;58442;52.716;23.560;2023-02-15T07:52:07;103040.95;;;3.73;77.75
70521;BME280;58442;52.716;23.560;2023-02-15T07:54:09;103041.19;;;3.72;77.73
70521;BME280;58442;52.716;23.560;2023-02-15T07:56:11;103042.01;;;3.72;77.71
70521;BME280;58442;52.716;23.560;2023-02-15T07:58:20;103036.02;;;3.70;77.74
70521;BME280;58442;52.716;23.560;2023-02-15T08:00:27;103037.09;;;3.69;77.78
70521;BME280;58442;52.716;23.560;2023-02-15T08:02:30;103039.80;;;3.69;77.78
70521;BME280;58442;52.716;23.560;2023-02-15T08:04:31;103029.27;;;3.68;77.79
70521;BME280;58442;52.716;23.560;2023-02-15T08:06:36;103030.34;;;3.67;77.79
70521;BME280;58442;52.716;23.560;2023-02-15T08:08:38;103039.47;;;3.66;77.88
70521;BME280;58442;52.716;23.560;2023-02-15T08:10:39;103034.34;;;3.64;77.88
70521;BME280;58442;52.716;23.560;2023-02-15T08:12:53;103029.19;;;3.63;77.96
70521;BME280;58442;52.716;23.560;2023-02-15T08:14:54;103037.85;;;3.65;77.99
70521;BME280;58442;52.716;23.560;2023-02-15T08:16:55;103026.84;;;3.66;77.91
70521;BME280;58442;52.716;23.560;2023-02-15T08:21:15;103029.03;;;3.69;77.91
70521;BME280;58442;52.716;23.560;2023-02-15T08:23:17;103026.59;;;3.68;77.84
70521;BME280;58442;52.716;23.560;2023-02-15T08:25:28;103030.34;;;3.67;77.91
70521;BME280;58442;52.716;23.560;2023-02-15T08:27:30;103036.54;;;3.67;77.92
70521;BME280;58442;52.716;23.560;2023-02-15T08:29:32;103033.84;;;3.67;77.86
70521;BME280;58442;52.716;23.560;2023-02-15T08:31:34;103040.86;;;3.68;77.90
70521;BME280;58442;52.716;23.560;2023-02-15T08:33:44;103050.07;;;3.72;77.86
70521;BME280;58442;52.716;23.560;2023-02-15T08:35:46;103041.50;;;3.75;77.75
70521;BME280;58442;52.716;23.560;2023-02-15T08:37:47;103046.16;;;3.80;77.67
70521;BME280;58442;52.716;23.560;2023-02-15T08:39:49;103038.99;;;3.86;77.55
70521;BME280;58442;52.716;23.560;2023-02-15T08:41:58;103047.96;;;3.91;77.35
70521;BME280;58442;52.716;23.560;2023-02-15T08:44:02;103042.34;;;3.93;77.22
70521;BME280;58442;52.716;23.560;2023-02-15T08:46:05;103038.58;;;3.94;77.13
70521;BME280;58442;52.716;23.560;2023-02-15T08:48:07;103041.26;;;3.94;77.14
70521;BME280;58442;52.716;23.560;2023-02-15T08:50:13;103041.26;;;3.94;77.05
70521;BME280;58442;52.716;23.560;2023-02-15T08:52:14;103042.88;;;3.95;77.10
70521;BME280;58442;52.716;23.560;2023-02-15T08:54:18;103042.38;;;3.98;77.03
70521;BME280;58442;52.716;23.560;2023-02-15T08:56:23;103040.28;;;4.00;77.01
70521;BME280;58442;52.716;23.560;2023-02-15T08:58:29;103041.65;;;4.02;76.97
70521;BME280;58442;52.716;23.560;2023-02-15T09:00:31;103039.30;;;4.06;77.01
70521;BME280;58442;52.716;23.560;2023-02-15T09:02:33;103036.66;;;4.11;76.83
70521;BME280;58442;52.716;23.560;2023-02-15T09:04:34;103041.31;;;4.16;76.76
70521;BME280;58442;52.716;23.560;2023-02-15T09:06:45;103037.30;;;4.18;76.58
70521;BME280;58442;52.716;23.560;2023-02-15T09:08:46;103040.59;;;4.20;76.48
70521;BME280;58442;52.716;23.560;2023-02-15T09:10:48;103038.16;;;4.19;76.38
70521;BME280;58442;52.716;23.560;2023-02-15T09:12:49;103033.07;;;4.22;76.53
70521;BME280;58442;52.716;23.560;2023-02-15T09:14:58;103034.77;;;4.28;76.44
70521;BME280;58442;52.716;23.560;2023-02-15T09:16:59;103032.64;;;4.30;76.31
70521;BME280;58442;52.716;23.560;2023-02-15T09:19:02;103034.27;;;4.31;76.26
70521;BME280;58442;52.716;23.560;2023-02-15T09:21:09;103034.85;;;4.33;76.16
70521;BME280;58442;52.716;23.560;2023-02-15T09:23:13;103037.55;;;4.33;76.15
70521;BME280;58442;52.716;23.560;2023-02-15T09:25:16;103024.30;;;4.32;76.16
70521;BME280;58442;52.716;23.560;2023-02-15T09:27:18;103028.88;;;4.31;76.19
70521;BME280;58442;52.716;23.560;2023-02-15T09:29:19;103032.38;;;4.32;76.24
70521;BME280;58442;52.716;23.560;2023-02-15T09:31:33;103022.46;;;4.32;76.09
70521;BME280;58442;52.716;23.560;2023-02-15T09:33:36;103023.28;;;4.33;75.97
70521;BME280;58442;52.716;23.560;2023-02-15T09:35:38;103018.92;;;4.32;75.98
70521;BME280;58442;52.716;23.560;2023-02-15T09:37:39;103030.53;;;4.32;75.95
70521;BME280;58442;52.716;23.560;2023-02-15T09:39:43;103022.46;;;4.32;75.91
70521;BME280;58442;52.716;23.560;2023-02-15T09:42:00;103020.33;;;4.34;75.92
70521;BME280;58442;52.716;23.560;2023-02-15T09:46:21;103016.87;;;4.39;75.70
70521;BME280;58442;52.716;23.560;2023-02-15T09:53:05;103024.84;;;4.51;75.54
70521;BME280;58442;52.716;23.560;2023-02-15T09:57:42;103012.59;;;4.60;75.36
70521;BME280;58442;52.716;23.560;2023-02-15T10:09:27;103006.68;;;4.63;75.05
70521;BME280;58442;52.716;23.560;2023-02-15T10:16:32;103008.05;;;4.65;75.09
70521;BME280;58442;52.716;23.560;2023-02-15T10:18:52;103004.54;;;4.65;75.06
70521;BME280;58442;52.716;23.560;2023-02-15T10:21:16;103001.86;;;4.65;75.03
70521;BME280;58442;52.716;23.560;2023-02-15T10:23:37;103000.78;;;4.66;75.04
70521;BME280;58442;52.716;23.560;2023-02-15T10:30:41;102996.01;;;4.73;74.81
70521;BME280;58442;52.716;23.560;2023-02-15T10:32:59;102990.95;;;4.77;74.75
70521;BME280;58442;52.716;23.560;2023-02-15T10:35:11;102991.25;;;4.80;74.53
70521;BME280;58442;52.716;23.560;2023-02-15T11:00:20;102981.73;;;4.94;73.93
70521;BME280;58442;52.716;23.560;2023-02-15T11:02:45;102974.20;;;4.97;73.80
70521;BME280;58442;52.716;23.560;2023-02-15T11:05:45;102976.37;;;5.00;73.77
70521;BME280;58442;52.716;23.560;2023-02-15T11:09:44;102971.59;;;5.07;73.65
70521;BME280;58442;52.716;23.560;2023-02-15T11:11:57;102963.02;;;5.10;73.44
70521;BME280;58442;52.716;23.560;2023-02-15T11:14:09;102967.59;;;5.09;73.35
70521;BME280;58442;52.716;23.560;2023-02-15T11:16:18;102962.74;;;5.11;73.22
70521;BME280;58442;52.716;23.560;2023-02-15T11:18:31;102963.52;;;5.07;73.19
70521;BME280;58442;52.716;23.560;2023-02-15T11:20:47;102961.88;;;5.06;73.38
70521;BME280;58442;52.716;23.560;2023-02-15T11:22:51;102955.42;;;5.07;73.28
70521;BME280;58442;52.716;23.560;2023-02-15T11:25:00;102952.22;;;5.10;73.18
70521;BME280;58442;52.716;23.560;2023-02-15T11:27:05;102954.66;;;5.11;73.12
70521;BME280;58442;52.716;23.560;2023-02-15T11:29:18;102957.62;;;5.10;73.10
70521;BME280;58442;52.716;23.560;2023-02-15T11:31:26;102952.49;;;5.08;73.09
70521;BME280;58442;52.716;23.560;2023-02-15T11:33:36;102955.73;;;5.10;73.01
70521;BME280;58442;52.716;23.560;2023-02-15T11:40:29;102944.90;;;5.05;72.99
70521;BME280;58442;52.716;23.560;2023-02-15T11:42:40;102943.02;;;5.06;72.95
70521;BME280;58442;52.716;23.560;2023-02-15T11:46:55;102946.84;;;5.10;72.74
70521;BME280;58442;52.716;23.560;2023-02-15T11:48:57;102939.82;;;5.09;72.75
70521;BME280;58442;52.716;23.560;2023-02-15T11:51:01;102932.79;;;5.08;72.84
70521;BME280;58442;52.716;23.560;2023-02-15T11:53:11;102935.53;;;5.13;72.77
70521;BME280;58442;52.716;23.560;2023-02-15T11:55:20;102932.08;;;5.17;72.60
70521;BME280;58442;52.716;23.560;2023-02-15T11:57:27;102931.81;;;5.19;72.46
70521;BME280;58442;52.716;23.560;2023-02-15T11:59:34;102929.13;;;5.19;72.42
70521;BME280;58442;52.716;23.560;2023-02-15T12:01:45;102929.93;;;5.19;72.46
70521;BME280;58442;52.716;23.560;2023-02-15T12:03:52;102922.70;;;5.25;72.41
70521;BME280;58442;52.716;23.560;2023-02-15T12:06:02;102921.68;;;5.31;72.24
70521;BME280;58442;52.716;23.560;2023-02-15T12:10:24;102914.95;;;5.34;71.94
70521;BME280;58442;52.716;23.560;2023-02-15T12:12:31;102904.47;;;5.37;71.86
70521;BME280;58442;52.716;23.560;2023-02-15T12:17:11;102901.78;;;5.37;71.85
70521;BME280;58442;52.716;23.560;2023-02-15T12:19:27;102896.39;;;5.37;71.80
70521;BME280;58442;52.716;23.560;2023-02-15T12:21:33;102900.44;;;5.40;71.68
70521;BME280;58442;52.716;23.560;2023-02-15T12:23:47;102896.42;;;5.42;71.65
70521;BME280;58442;52.716;23.560;2023-02-15T12:25:52;102897.74;;;5.40;71.59
70521;BME280;58442;52.716;23.560;2023-02-15T12:27:55;102896.34;;;5.32;71.68
70521;BME280;58442;52.716;23.560;2023-02-15T12:29:59;102897.09;;;5.23;71.71
70521;BME280;58442;52.716;23.560;2023-02-15T12:32:03;102901.08;;;5.15;71.73
70521;BME280;58442;52.716;23.560;2023-02-15T12:34:13;102894.25;;;5.07;71.78
70521;BME280;58442;52.716;23.560;2023-02-15T12:36:23;102896.39;;;5.05;71.86
70521;BME280;58442;52.716;23.560;2023-02-15T12:38:29;102888.63;;;5.09;71.79
70521;BME280;58442;52.716;23.560;2023-02-15T12:40:33;102893.75;;;5.10;71.70
70521;BME280;58442;52.716;23.560;2023-02-15T12:42:43;102889.43;;;5.09;71.73
70521;BME280;58442;52.716;23.560;2023-02-15T12:47:03;102881.34;;;5.09;71.59